Time;durP1;ratioP1;P1;durP2;ratioP2;P2;SDS_P1;SDS_P2;PMS_P1;PMS_P2;Temp;Humidity;BMP_temperature;BMP_pressure;BME280_temperature;BME280_humidity;BME280_pressure;Samples;Min_cycle;Max_cycle;Signal;HPM_P1;HPM_P2
2023/04/27 00:00:57;;;;;;;4.65;3.17;;;;;;;8.65;86.59;95765.59;5051538;28;20039;-72
2023/04/27 00:03:23;;;;;;;4.28;3.40;;;;;;;8.61;87.17;95769.41;5053789;28;20052;-72
2023/04/27 00:05:48;;;;;;;4.40;3.95;;;;;;;8.57;88.26;95762.75;5069157;28;20082;-72
2023/04/27 00:08:13;;;;;;;5.78;5.18;;;;;;;8.49;89.46;95765.16;5053017;28;20029;-72
2023/04/27 00:10:39;;;;;;;6.07;5.47;;;;;;;8.44;88.60;95755.91;5048769;28;20025;-72
2023/04/27 00:13:04;;;;;;;16.65;11.98;;;;;;;8.38;88.49;95759.00;5055621;28;20132;-72
2023/04/27 00:15:30;;;;;;;10.32;7.40;;;;;;;8.34;88.55;95754.97;5052161;28;20125;-72
2023/04/27 00:17:56;;;;;;;6.57;5.22;;;;;;;8.31;88.49;95756.06;5053279;28;20025;-72
2023/04/27 00:20:22;;;;;;;5.25;4.40;;;;;;;8.26;88.48;95747.72;5054204;28;20420;-72
2023/04/27 00:22:48;;;;;;;4.43;3.50;;;;;;;8.30;88.35;95745.69;5049945;28;20079;-72
2023/04/27 00:25:13;;;;;;;4.20;3.80;;;;;;;8.30;88.70;95740.44;5052411;28;20029;-72
2023/04/27 00:27:39;;;;;;;4.13;3.67;;;;;;;8.24;89.82;95747.03;5053547;28;20025;-72
2023/04/27 00:30:05;;;;;;;3.50;3.20;;;;;;;8.26;89.94;95747.72;5053047;28;20074;-72
2023/04/27 00:32:30;;;;;;;3.85;3.45;;;;;;;8.26;90.15;95739.88;5053005;28;20040;-72
2023/04/27 00:34:56;;;;;;;3.60;3.30;;;;;;;8.27;89.22;95744.16;5054861;28;20029;-72
2023/04/27 00:37:21;;;;;;;3.05;2.85;;;;;;;8.31;89.20;95732.47;5052395;28;20029;-72
2023/04/27 00:39:47;;;;;;;3.13;2.92;;;;;;;8.32;88.68;95730.66;5054339;28;20060;-73
2023/04/27 00:42:16;;;;;;;3.08;2.78;;;;;;;8.28;89.06;95729.25;5048660;28;20038;-72
2023/04/27 00:44:41;;;;;;;4.70;3.45;;;;;;;8.21;90.00;95734.16;5050946;28;20108;-72
2023/04/27 00:47:06;;;;;;;3.30;3.00;;;;;;;8.20;89.75;95734.31;5050121;28;20087;-72
2023/04/27 00:49:32;;;;;;;3.80;3.47;;;;;;;8.16;90.46;95729.28;5054961;28;20085;-72
2023/04/27 00:51:59;;;;;;;3.72;3.30;;;;;;;8.14;89.78;95730.41;5049038;28;20482;-72
2023/04/27 00:54:24;;;;;;;4.75;4.18;;;;;;;8.10;92.12;95723.75;5049236;28;20017;-71
2023/04/27 00:56:51;;;;;;;6.57;4.25;;;;;;;8.07;92.59;95729.22;5051598;28;20025;-72
2023/04/27 00:59:17;;;;;;;4.45;3.63;;;;;;;7.98;91.96;95723.78;5053792;28;20024;-72
2023/04/27 01:01:43;;;;;;;3.67;3.35;;;;;;;7.94;91.19;95722.38;5054419;28;20029;-72
2023/04/27 01:04:09;;;;;;;3.20;2.80;;;;;;;7.93;90.34;95728.56;5053422;28;20527;-72
2023/04/27 01:06:34;;;;;;;3.17;2.88;;;;;;;7.94;90.40;95735.47;5042306;28;20447;-72
2023/04/27 01:09:00;;;;;;;7.13;3.08;;;;;;;7.93;91.00;95727.72;5053320;28;20120;-72
2023/04/27 01:11:25;;;;;;;2.97;2.78;;;;;;;7.90;91.95;95734.06;5052153;28;20104;-72
2023/04/27 01:13:52;;;;;;;2.95;2.50;;;;;;;7.84;92.07;95724.06;5051724;28;20031;-72
2023/04/27 01:16:18;;;;;;;5.85;2.50;;;;;;;7.79;91.81;95719.22;5054236;28;20060;-72
2023/04/27 01:18:44;;;;;;;2.60;2.38;;;;;;;7.76;92.32;95731.72;5054694;28;20025;-71
2023/04/27 01:21:10;;;;;;;5.10;2.30;;;;;;;7.70;92.55;95718.16;5057088;28;20109;-72
2023/04/27 01:23:35;;;;;;;2.85;2.17;;;;;;;7.61;93.93;95718.88;5058229;28;20064;-72
2023/04/27 01:26:01;;;;;;;3.78;2.40;;;;;;;7.56;92.98;95716.66;5053581;28;20017;-72
2023/04/27 01:28:26;;;;;;;3.88;3.10;;;;;;;7.55;92.52;95716.75;5055557;28;20029;-72
2023/04/27 01:30:51;;;;;;;2.70;2.50;;;;;;;7.51;93.23;95712.72;5053121;28;20036;-72
2023/04/27 01:33:17;;;;;;;3.72;2.80;;;;;;;7.52;92.88;95711.75;5054007;28;20029;-72
2023/04/27 01:35:42;;;;;;;3.05;2.72;;;;;;;7.47;94.57;95706.88;5050719;28;20029;-72
2023/04/27 01:38:08;;;;;;;2.60;2.40;;;;;;;7.45;93.38;95720.13;5054742;28;20065;-72
2023/04/27 01:40:33;;;;;;;3.03;2.72;;;;;;;7.42;93.13;95712.50;5053689;28;20028;-72
2023/04/27 01:42:58;;;;;;;3.70;2.95;;;;;;;7.47;92.44;95711.31;5056761;28;20071;-72
2023/04/27 01:45:24;;;;;;;3.80;2.75;;;;;;;7.41;93.29;95718.72;5055921;28;20092;-72
2023/04/27 01:47:51;;;;;;;2.25;2.08;;;;;;;7.38;93.86;95723.34;5048774;28;20028;-72
2023/04/27 01:50:16;;;;;;;2.67;2.22;;;;;;;7.34;94.16;95721.94;5053277;28;20021;-71
2023/04/27 01:52:42;;;;;;;3.38;2.20;;;;;;;7.38;93.37;95721.53;5055457;28;20037;-72
2023/04/27 01:55:07;;;;;;;2.10;2.00;;;;;;;7.41;93.33;95729.19;5054870;28;20120;-72
2023/04/27 01:57:33;;;;;;;3.20;2.13;;;;;;;7.40;93.61;95724.88;5057734;28;20029;-71
2023/04/27 01:59:58;;;;;;;2.08;1.98;;;;;;;7.37;93.34;95732.97;5054552;28;20029;-72
2023/04/27 02:02:23;;;;;;;2.13;2.03;;;;;;;7.34;94.97;95743.69;5055919;28;20119;-72
2023/04/27 02:04:49;;;;;;;2.35;2.15;;;;;;;7.28;94.26;95739.75;5056411;28;20027;-71
2023/04/27 02:07:14;;;;;;;3.85;2.20;;;;;;;7.26;94.20;95744.28;5055754;28;20542;-72
2023/04/27 02:09:40;;;;;;;2.30;2.10;;;;;;;7.26;95.67;95754.75;5053117;28;20029;-72
2023/04/27 02:12:06;;;;;;;3.72;2.33;;;;;;;7.20;95.52;95752.63;5058051;28;20041;-72
2023/04/27 02:14:31;;;;;;;2.30;2.20;;;;;;;7.13;94.35;95754.88;5049601;28;20083;-72
2023/04/27 02:16:56;;;;;;;2.83;2.05;;;;;;;7.10;93.98;95752.53;5054183;28;20035;-72
2023/04/27 02:19:22;;;;;;;6.00;2.17;;;;;;;7.06;95.38;95756.34;5048648;28;20076;-72
2023/04/27 02:21:47;;;;;;;1.98;1.88;;;;;;;7.00;95.32;95751.56;5054357;28;20021;-72
2023/04/27 02:24:12;;;;;;;2.05;1.95;;;;;;;6.97;94.43;95755.25;5051779;28;20092;-72
2023/04/27 02:26:38;;;;;;;2.15;1.80;;;;;;;6.98;94.42;95758.72;5051521;28;20028;-72
2023/04/27 02:29:03;;;;;;;2.35;2.05;;;;;;;6.98;94.37;95761.34;5055573;28;20025;-72
2023/04/27 02:31:29;;;;;;;1.95;1.85;;;;;;;6.93;95.24;95760.84;5052867;28;20039;-72
2023/04/27 02:33:55;;;;;;;2.38;2.03;;;;;;;6.87;95.82;95762.97;5049810;28;20025;-72
2023/04/27 02:36:20;;;;;;;2.00;1.90;;;;;;;6.83;95.93;95764.16;5054440;28;20396;-72
2023/04/27 02:38:46;;;;;;;2.42;2.33;;;;;;;6.82;95.86;95765.13;5052059;28;20112;-72
2023/04/27 02:41:11;;;;;;;4.15;3.85;;;;;;;6.79;95.99;95764.50;5069507;28;20058;-72
2023/04/27 02:43:36;;;;;;;2.45;2.13;;;;;;;6.81;95.33;95771.31;5051617;28;20378;-72
2023/04/27 02:46:03;;;;;;;2.13;2.03;;;;;;;6.82;96.06;95765.13;5055715;28;20118;-73
2023/04/27 02:48:30;;;;;;;2.20;1.70;;;;;;;6.79;96.29;95767.97;5049870;28;20039;-72
2023/04/27 02:50:56;;;;;;;2.38;2.17;;;;;;;6.73;96.93;95761.41;5055970;28;20024;-72
2023/04/27 02:53:22;;;;;;;2.20;2.00;;;;;;;6.75;96.72;95756.06;5053651;28;20739;-72
2023/04/27 02:55:48;;;;;;;2.30;1.77;;;;;;;6.70;96.79;95750.34;5056449;28;20060;-73
2023/04/27 02:58:14;;;;;;;2.25;1.88;;;;;;;6.72;97.38;95753.66;5055794;28;20055;-73
2023/04/27 03:00:40;;;;;;;2.45;2.25;;;;;;;6.69;100.00;95759.13;5050912;28;20033;-72
2023/04/27 03:03:06;;;;;;;1.88;1.77;;;;;;;6.64;99.61;95758.66;5054476;28;20020;-72
2023/04/27 03:05:32;;;;;;;2.10;2.00;;;;;;;6.63;99.24;95759.59;5050276;28;20021;-72
2023/04/27 03:07:57;;;;;;;1.85;1.75;;;;;;;6.63;98.87;95760.47;5045015;28;20516;-72
2023/04/27 03:10:23;;;;;;;2.47;1.92;;;;;;;6.58;100.00;95763.41;5053778;28;20527;-72
2023/04/27 03:12:48;;;;;;;2.80;2.15;;;;;;;6.55;99.61;95760.19;5054236;28;20068;-72
2023/04/27 03:15:14;;;;;;;1.90;1.70;;;;;;;6.63;98.78;95755.22;5052814;28;20687;-72
2023/04/27 03:17:39;;;;;;;1.65;1.65;;;;;;;6.71;98.43;95746.78;5056764;28;20404;-71
2023/04/27 03:20:09;;;;;;;2.75;1.92;;;;;;;6.74;99.57;95751.75;5051702;28;20032;-72
2023/04/27 03:22:37;;;;;;;1.80;1.70;;;;;;;6.80;98.17;95743.47;5049211;28;20029;-72
2023/04/27 03:25:03;;;;;;;1.63;1.50;;;;;;;6.88;99.16;95748.13;5052967;28;20021;-71
2023/04/27 03:27:29;;;;;;;1.55;1.55;;;;;;;6.95;98.83;95748.47;5048616;28;20503;-72
2023/04/27 03:29:54;;;;;;;2.00;1.90;;;;;;;6.99;100.00;95749.91;5045343;28;20120;-71
2023/04/27 03:32:20;;;;;;;2.42;2.22;;;;;;;7.03;100.00;95748.72;5052548;28;20051;-72
2023/04/27 03:34:45;;;;;;;2.10;2.00;;;;;;;7.10;100.00;95754.31;5055176;28;20033;-73
2023/04/27 03:37:11;;;;;;;1.98;1.88;;;;;;;7.19;99.81;95739.69;5069791;28;20053;-72
2023/04/27 03:39:36;;;;;;;2.58;2.20;;;;;;;7.25;100.00;95733.97;5050581;28;20045;-72
2023/04/27 03:42:02;;;;;;;2.05;1.95;;;;;;;7.24;99.83;95738.34;5052674;28;20059;-72
2023/04/27 03:44:29;;;;;;;2.75;2.47;;;;;;;7.27;99.14;95729.44;5048108;28;20025;-72
2023/04/27 03:46:54;;;;;;;2.58;2.40;;;;;;;7.27;98.59;95725.00;5049760;28;20135;-72
2023/04/27 03:49:20;;;;;;;3.80;3.45;;;;;;;7.25;98.68;95728.72;5055915;28;20052;-72
2023/04/27 03:51:45;;;;;;;5.40;4.88;;;;;;;7.22;98.49;95732.41;5049639;28;20037;-72
2023/04/27 03:54:11;;;;;;;13.88;12.30;;;;;;;7.27;98.97;95732.03;5048783;28;20044;-72
2023/04/27 03:56:36;;;;;;;15.68;14.18;;;;;;;7.25;98.87;95720.88;5052731;28;20033;-72
2023/04/27 03:59:03;;;;;;;17.90;15.45;;;;;;;7.26;98.04;95730.38;5055205;28;20020;-74
2023/04/27 04:01:29;;;;;;;10.18;8.88;;;;;;;7.21;99.59;95727.31;5055465;28;20028;-73
2023/04/27 04:03:55;;;;;;;5.43;5.03;;;;;;;7.16;98.96;95728.47;5054569;28;20024;-73
2023/04/27 04:06:20;;;;;;;7.68;6.47;;;;;;;7.11;99.50;95737.66;5055657;28;20098;-73
2023/04/27 04:08:46;;;;;;;4.82;4.50;;;;;;;7.07;99.18;95725.72;5055150;28;20033;-73
2023/04/27 04:11:11;;;;;;;6.40;4.25;;;;;;;7.03;99.48;95733.00;5055719;28;20033;-73
2023/04/27 04:13:36;;;;;;;4.57;4.18;;;;;;;6.98;100.00;95738.59;5055118;28;20029;-72
2023/04/27 04:16:06;;;;;;;4.20;3.72;;;;;;;6.96;99.65;95734.41;5054985;28;20057;-72
2023/04/27 04:18:33;;;;;;;3.70;3.40;;;;;;;6.86;99.77;95732.53;5054743;28;20016;-74
2023/04/27 04:20:58;;;;;;;3.25;3.05;;;;;;;6.82;100.00;95741.56;5056565;28;20060;-73
2023/04/27 04:23:24;;;;;;;5.80;3.50;;;;;;;6.79;99.79;95740.94;5055146;28;20106;-72
2023/04/27 04:25:50;;;;;;;4.22;3.17;;;;;;;6.77;99.49;95741.09;5054563;28;20020;-73
2023/04/27 04:28:16;;;;;;;5.70;3.83;;;;;;;6.74;100.00;95730.84;5055552;28;20393;-72
2023/04/27 04:30:42;;;;;;;4.35;3.65;;;;;;;6.72;99.80;95730.13;5054512;28;20031;-73
2023/04/27 04:33:08;;;;;;;4.50;4.10;;;;;;;6.70;100.00;95743.34;5052705;28;20029;-74
2023/04/27 04:35:37;;;;;;;3.05;2.58;;;;;;;6.64;99.92;95740.34;5051930;28;20022;-72
2023/04/27 04:38:02;;;;;;;2.40;2.30;;;;;;;6.62;99.96;95748.28;5056866;28;20064;-72
2023/04/27 04:40:27;;;;;;;2.40;2.20;;;;;;;6.63;99.07;95743.91;5054721;28;20477;-72
2023/04/27 04:42:53;;;;;;;2.72;2.60;;;;;;;6.62;99.40;95744.88;5062812;28;20082;-71
2023/04/27 04:45:18;;;;;;;2.90;2.70;;;;;;;6.63;99.22;95750.00;5053061;28;20079;-72
2023/04/27 04:47:44;;;;;;;2.83;2.63;;;;;;;6.62;99.95;95752.72;5053410;28;20032;-72
2023/04/27 04:50:10;;;;;;;7.22;2.80;;;;;;;6.55;100.00;95763.66;5056934;28;20115;-72
2023/04/27 04:52:36;;;;;;;2.88;2.35;;;;;;;6.52;100.00;95768.25;5059362;28;20036;-71
2023/04/27 04:55:02;;;;;;;3.03;2.20;;;;;;;6.49;100.00;95760.66;5059275;28;20021;-72
2023/04/27 04:57:29;;;;;;;3.90;2.65;;;;;;;6.50;100.00;95765.75;5058987;28;20032;-72
2023/04/27 04:59:54;;;;;;;4.60;2.50;;;;;;;6.51;100.00;95771.81;5059221;28;20040;-72
2023/04/27 05:02:20;;;;;;;2.50;2.30;;;;;;;6.52;100.00;95778.72;5058324;28;20024;-72
2023/04/27 05:04:45;;;;;;;2.45;2.08;;;;;;;6.58;100.00;95778.25;5059406;28;20056;-72
2023/04/27 05:07:11;;;;;;;5.22;2.03;;;;;;;6.61;100.00;95775.41;5058817;28;20077;-72
2023/04/27 05:09:37;;;;;;;2.40;2.08;;;;;;;6.59;100.00;95780.78;5058339;28;20413;-72
2023/04/27 05:12:02;;;;;;;4.53;2.45;;;;;;;6.60;100.00;95778.97;5055904;28;20025;-72
2023/04/27 05:14:28;;;;;;;4.70;2.85;;;;;;;6.57;100.00;95782.66;5050959;28;20102;-72
2023/04/27 05:16:53;;;;;;;4.50;3.10;;;;;;;6.55;100.00;95784.56;5056531;28;20049;-72
2023/04/27 05:19:19;;;;;;;3.55;2.67;;;;;;;6.61;100.00;95774.59;5058557;28;20032;-72
2023/04/27 05:21:45;;;;;;;2.97;2.20;;;;;;;6.63;100.00;95775.31;5049701;28;20485;-71
2023/04/27 05:24:11;;;;;;;4.18;2.78;;;;;;;6.63;100.00;95772.69;5058962;28;20029;-72
2023/04/27 05:26:37;;;;;;;7.55;2.85;;;;;;;6.62;100.00;95778.88;5047793;28;20025;-72
2023/04/27 05:29:03;;;;;;;4.35;2.85;;;;;;;6.59;100.00;95769.47;5057583;28;20551;-72
2023/04/27 05:31:28;;;;;;;2.72;2.63;;;;;;;6.55;100.00;95773.25;5059459;28;20028;-72
2023/04/27 05:33:53;;;;;;;5.10;2.90;;;;;;;6.62;100.00;95773.63;5058351;28;20059;-72
2023/04/27 05:36:19;;;;;;;3.60;2.63;;;;;;;6.65;100.00;95778.63;5057272;28;20024;-71
2023/04/27 05:38:44;;;;;;;3.22;2.70;;;;;;;6.68;100.00;95773.16;5054113;28;20049;-72
2023/04/27 05:41:10;;;;;;;5.57;3.00;;;;;;;6.66;100.00;95770.69;5057459;28;20136;-76
2023/04/27 05:43:37;;;;;;;5.70;3.03;;;;;;;6.68;100.00;95783.63;5053705;28;20049;-72
2023/04/27 05:46:03;;;;;;;2.63;2.45;;;;;;;6.70;100.00;95781.72;5050765;28;20143;-72
2023/04/27 05:48:28;;;;;;;2.78;2.50;;;;;;;6.80;100.00;95777.47;5047146;28;20018;-70
2023/04/27 05:51:01;;;;;;;3.50;3.15;;;;;;;6.91;99.45;95775.81;5056710;28;20021;-72
2023/04/27 05:53:27;;;;;;;3.85;2.95;;;;;;;6.93;99.94;95771.31;5055006;28;20025;-70
2023/04/27 05:55:53;;;;;;;4.00;3.05;;;;;;;6.98;100.00;95763.94;5056091;28;20028;-71
2023/04/27 05:58:18;;;;;;;7.03;2.97;;;;;;;7.14;99.24;95769.66;5050176;28;20048;-73
2023/04/27 06:00:43;;;;;;;3.42;3.13;;;;;;;7.39;98.11;95775.59;5046095;28;20115;-72
2023/04/27 06:03:09;;;;;;;5.63;3.50;;;;;;;7.68;96.97;95771.63;5054553;28;20036;-71
2023/04/27 06:05:35;;;;;;;6.22;3.22;;;;;;;7.98;95.64;95772.78;5055514;28;20021;-72
2023/04/27 06:08:00;;;;;;;6.00;3.67;;;;;;;8.24;94.13;95768.00;5054840;28;20025;-72
2023/04/27 06:10:25;;;;;;;6.25;3.35;;;;;;;8.53;92.42;95767.44;5054255;28;20021;-73
2023/04/27 06:12:51;;;;;;;4.03;2.88;;;;;;;8.87;90.19;95769.03;5054270;28;20025;-70
2023/04/27 06:15:16;;;;;;;4.53;2.50;;;;;;;9.21;86.80;95770.59;5050813;28;20021;-72
2023/04/27 06:17:44;;;;;;;2.30;2.00;;;;;;;9.57;82.77;95784.13;5049882;28;20017;-71
2023/04/27 06:20:11;;;;;;;1.88;1.77;;;;;;;9.96;82.75;95793.94;5054427;28;20539;-70
2023/04/27 06:22:36;;;;;;;2.45;2.10;;;;;;;10.34;81.97;95791.50;5057123;28;20025;-70
2023/04/27 06:25:03;;;;;;;3.90;2.30;;;;;;;10.67;80.24;95797.31;5056876;28;20021;-71
2023/04/27 06:27:28;;;;;;;2.28;2.00;;;;;;;10.95;77.19;95805.34;5056145;28;20020;-71
2023/04/27 06:29:54;;;;;;;1.70;1.60;;;;;;;11.20;75.04;95816.25;5057228;28;20035;-71
2023/04/27 06:32:19;;;;;;;3.53;1.50;;;;;;;11.54;71.79;95820.97;5055785;28;20077;-72
2023/04/27 06:34:46;;;;;;;1.38;1.38;;;;;;;11.78;69.85;95819.63;5054997;28;20536;-71
2023/04/27 06:37:11;;;;;;;1.63;1.52;;;;;;;12.01;70.87;95826.19;5057119;28;20021;-73
2023/04/27 06:39:37;;;;;;;1.58;1.55;;;;;;;12.46;67.90;95824.53;5054720;28;20501;-72
2023/04/27 06:42:03;;;;;;;4.40;2.15;;;;;;;12.94;67.85;95826.09;5057668;28;20128;-72
2023/04/27 06:44:29;;;;;;;2.50;2.30;;;;;;;13.43;66.10;95829.09;5056848;28;20389;-73
2023/04/27 06:46:54;;;;;;;2.10;1.80;;;;;;;13.83;64.42;95818.06;5056446;28;20378;-73
2023/04/27 06:49:20;;;;;;;4.78;2.45;;;;;;;14.16;62.14;95821.63;5055589;28;20040;-73
2023/04/27 06:51:46;;;;;;;9.35;1.85;;;;;;;14.33;63.38;95825.16;5052918;28;20543;-73
2023/04/27 06:54:12;;;;;;;4.00;2.17;;;;;;;14.51;61.55;95815.41;5046958;28;20033;-73
2023/04/27 06:56:37;;;;;;;3.05;1.77;;;;;;;14.82;58.42;95810.31;5056154;28;20049;-73
2023/04/27 06:59:03;;;;;;;3.75;2.40;;;;;;;15.13;56.77;95814.94;5049552;28;20036;-73
2023/04/27 07:01:28;;;;;;;2.58;1.70;;;;;;;15.28;58.24;95811.63;5056508;28;20481;-73
2023/04/27 07:03:53;;;;;;;1.58;1.50;;;;;;;15.39;56.24;95813.94;5049383;28;20039;-73
2023/04/27 07:06:19;;;;;;;1.10;1.10;;;;;;;15.05;57.32;95809.66;5055885;28;20009;-73
2023/04/27 07:08:45;;;;;;;1.08;1.08;;;;;;;15.42;57.72;95802.97;5055453;28;20021;-73
2023/04/27 07:11:10;;;;;;;1.35;1.13;;;;;;;16.06;56.29;95803.94;5050682;28;20104;-72
2023/04/27 07:13:35;;;;;;;2.72;1.40;;;;;;;16.49;54.20;95806.19;5056799;28;20091;-73
2023/04/27 07:16:01;;;;;;;2.28;1.70;;;;;;;16.73;53.49;95807.84;5051685;28;20124;-73
2023/04/27 07:18:29;;;;;;;2.35;1.50;;;;;;;17.11;51.33;95803.56;5055936;28;20029;-73
2023/04/27 07:20:56;;;;;;;3.13;1.25;;;;;;;17.71;51.54;95800.97;5051565;28;20021;-73
2023/04/27 07:23:22;;;;;;;1.40;1.40;;;;;;;17.66;46.92;95796.19;5053711;28;20401;-73
2023/04/27 07:25:48;;;;;;;1.30;1.20;;;;;;;17.81;43.78;95795.38;5051918;28;20021;-73
2023/04/27 07:28:14;;;;;;;2.13;1.40;;;;;;;16.89;46.93;95803.41;5047553;28;20035;-73
2023/04/27 07:30:41;;;;;;;2.92;1.40;;;;;;;17.16;45.43;95796.72;5049165;28;20048;-72
2023/04/27 07:33:07;;;;;;;5.07;1.50;;;;;;;17.00;46.00;95789.69;5051705;28;20083;-73
2023/04/27 07:35:32;;;;;;;1.85;1.63;;;;;;;17.56;45.18;95787.66;5051996;28;20018;-73
2023/04/27 07:38:00;;;;;;;3.83;1.73;;;;;;;17.67;45.20;95781.88;5053275;28;20033;-73
2023/04/27 07:40:27;;;;;;;1.35;1.20;;;;;;;17.66;45.22;95790.03;5054636;28;20076;-72
2023/04/27 07:42:53;;;;;;;1.75;1.40;;;;;;;17.84;42.89;95793.16;5054978;28;20025;-72
2023/04/27 07:45:18;;;;;;;2.03;1.58;;;;;;;18.21;44.32;95785.22;5055334;28;20107;-73
2023/04/27 07:47:45;;;;;;;1.63;1.55;;;;;;;18.83;42.66;95777.63;5054570;28;20020;-72
2023/04/27 07:50:13;;;;;;;1.40;1.30;;;;;;;18.68;42.62;95782.19;5054619;28;20020;-73
2023/04/27 07:52:38;;;;;;;1.15;1.15;;;;;;;18.95;42.95;95772.59;5054710;28;20027;-73
2023/04/27 07:55:04;;;;;;;2.00;1.42;;;;;;;19.68;40.39;95774.16;5054782;28;20021;-72
2023/04/27 07:57:30;;;;;;;3.58;1.42;;;;;;;19.92;40.24;95773.91;5054881;28;20029;-73
2023/04/27 07:59:56;;;;;;;2.70;1.80;;;;;;;19.82;39.06;95766.22;5049748;28;20021;-72
2023/04/27 08:02:21;;;;;;;1.40;1.35;;;;;;;20.22;40.37;95754.88;5055042;28;20047;-72
2023/04/27 08:04:47;;;;;;;1.50;1.40;;;;;;;20.42;39.39;95758.44;5054169;28;20020;-73
2023/04/27 08:07:15;;;;;;;1.40;1.25;;;;;;;20.87;38.32;95757.06;5054165;28;20017;-73
2023/04/27 08:09:40;;;;;;;0.95;0.95;;;;;;;21.27;37.37;95746.34;5053911;28;20025;-73
2023/04/27 08:12:06;;;;;;;2.00;1.30;;;;;;;21.29;37.37;95754.16;5054520;28;20100;-74
2023/04/27 08:14:34;;;;;;;3.35;1.20;;;;;;;21.18;38.57;95753.78;5054992;28;20395;-73
2023/04/27 08:16:59;;;;;;;1.25;1.00;;;;;;;21.17;37.85;95754.81;5054583;28;20021;-73
2023/04/27 08:19:24;;;;;;;1.05;0.90;;;;;;;21.43;35.92;95755.78;5053642;28;20608;-72
2023/04/27 08:21:50;;;;;;;0.93;0.88;;;;;;;21.38;35.75;95752.09;5053889;28;20033;-73
2023/04/27 08:24:15;;;;;;;1.77;1.00;;;;;;;21.17;36.19;95745.94;5053844;28;20063;-72
2023/04/27 08:26:41;;;;;;;1.90;0.93;;;;;;;21.07;36.97;95742.88;5054476;28;20533;-73
2023/04/27 08:29:06;;;;;;;3.50;0.80;;;;;;;22.11;34.83;95747.56;5052470;28;20063;-72
2023/04/27 08:31:32;;;;;;;1.85;1.00;;;;;;;22.57;33.96;95748.38;5051287;28;20043;-73
2023/04/27 08:33:57;;;;;;;0.90;0.90;;;;;;;22.51;33.14;95752.75;5053098;28;20485;-73
2023/04/27 08:36:23;;;;;;;1.55;0.98;;;;;;;22.71;30.77;95749.09;5055312;28;20421;-73
2023/04/27 08:38:52;;;;;;;0.90;0.90;;;;;;;22.82;31.77;95748.38;5051808;28;20103;-73
2023/04/27 08:41:22;;;;;;;1.13;1.02;;;;;;;22.83;32.43;95757.28;5051865;28;20020;-73
2023/04/27 08:43:48;;;;;;;1.55;1.10;;;;;;;23.32;32.28;95744.91;5053558;28;20488;-73
2023/04/27 08:46:21;;;;;;;2.45;1.10;;;;;;;22.91;30.19;95740.91;5053629;28;20033;-73
2023/04/27 08:48:51;;;;;;;3.70;1.27;;;;;;;23.69;31.45;95727.97;5049280;28;20013;-74
2023/04/27 08:51:17;;;;;;;1.45;1.33;;;;;;;23.85;31.36;95725.75;5054021;28;20017;-74
2023/04/27 08:53:55;;;;;;;1.42;1.20;;;;;;;23.59;31.65;95725.00;5054116;28;20021;-74
2023/04/27 08:56:24;;;;;;;3.25;1.90;;;;;;;23.53;31.49;95723.19;5053060;28;20017;-74
2023/04/27 08:58:50;;;;;;;1.60;1.50;;;;;;;23.31;34.60;95719.09;5050900;28;20116;-74
2023/04/27 09:01:16;;;;;;;2.30;0.90;;;;;;;24.23;31.69;95716.63;5053447;28;20094;-74
2023/04/27 09:03:41;;;;;;;1.20;1.10;;;;;;;24.86;29.69;95717.13;5053355;28;20020;-72
2023/04/27 09:06:07;;;;;;;1.45;1.20;;;;;;;24.05;30.39;95712.06;5053440;28;20028;-71
2023/04/27 09:08:49;;;;;;;1.25;1.25;;;;;;;24.26;31.63;95718.84;5053317;28;20040;-75
2023/04/27 09:11:27;;;;;;;2.47;0.90;;;;;;;24.68;29.78;95719.91;5053618;28;20044;-74
2023/04/27 09:13:53;;;;;;;0.80;0.80;;;;;;;24.15;30.10;95716.91;5052065;28;20032;-75
2023/04/27 09:16:23;;;;;;;1.02;0.93;;;;;;;23.94;30.77;95718.19;5052005;28;20021;-75
2023/04/27 09:18:48;;;;;;;1.80;1.02;;;;;;;24.15;30.47;95716.91;5050605;28;20040;-74
2023/04/27 09:21:30;;;;;;;1.33;1.23;;;;;;;24.25;30.44;95724.44;5053982;28;20115;-73
2023/04/27 09:23:56;;;;;;;1.13;1.10;;;;;;;23.64;31.66;95727.84;5053493;28;20022;-74
2023/04/27 09:26:24;;;;;;;1.08;1.05;;;;;;;24.35;30.38;95726.56;5053566;28;20092;-74
2023/04/27 09:28:56;;;;;;;0.80;0.80;;;;;;;24.64;29.67;95733.00;5053287;28;20121;-74
2023/04/27 09:31:30;;;;;;;2.95;1.13;;;;;;;24.23;30.91;95726.53;5050411;28;20034;-72
2023/04/27 09:33:56;;;;;;;1.30;0.98;;;;;;;25.44;27.51;95724.66;5040568;28;20028;-73
2023/04/27 09:36:22;;;;;;;3.05;1.25;;;;;;;24.88;27.95;95719.59;5056041;28;20025;-71
2023/04/27 09:38:48;;;;;;;1.40;1.20;;;;;;;24.17;29.25;95718.34;5056636;28;20053;-72
2023/04/27 09:41:14;;;;;;;2.22;1.13;;;;;;;23.54;31.68;95727.53;5056521;28;20104;-72
2023/04/27 09:43:44;;;;;;;1.65;1.20;;;;;;;23.40;33.29;95726.84;5056915;28;20101;-72
2023/04/27 09:46:13;;;;;;;1.30;1.20;;;;;;;24.32;32.67;95726.00;5057060;28;20191;-72
2023/04/27 09:48:39;;;;;;;3.78;1.20;;;;;;;24.31;29.66;95724.34;5056350;28;20039;-72
2023/04/27 09:51:05;;;;;;;1.23;1.20;;;;;;;24.01;29.22;95725.16;5056875;28;20036;-72
2023/04/27 09:53:47;;;;;;;1.33;1.27;;;;;;;23.70;30.17;95726.94;5056139;28;20037;-72
2023/04/27 09:56:27;;;;;;;0.85;0.85;;;;;;;23.67;30.05;95732.75;5057593;28;20037;-72
2023/04/27 09:59:20;;;;;;;1.00;1.00;;;;;;;23.34;32.48;95731.25;5056514;28;20029;-71
2023/04/27 10:01:54;;;;;;;1.23;1.13;;;;;;;23.07;32.31;95728.78;5056156;28;20108;-73
2023/04/27 10:04:47;;;;;;;8.90;4.82;;;;;;;23.25;33.11;95727.19;5056652;28;20063;-73
2023/04/27 10:07:14;;;;;;;2.33;1.90;;;;;;;23.35;33.78;95732.06;5055721;28;20115;-73
2023/04/27 10:09:52;;;;;;;2.33;1.05;;;;;;;23.93;29.87;95725.44;5071585;28;20024;-73
2023/04/27 10:12:19;;;;;;;1.20;1.20;;;;;;;23.43;30.70;95734.47;5054818;28;20025;-73
2023/04/27 10:14:50;;;;;;;1.90;1.30;;;;;;;22.46;33.80;95728.41;5057468;28;20051;-72
2023/04/27 10:17:15;;;;;;;1.75;1.25;;;;;;;22.40;33.49;95726.56;5043707;28;20083;-68
2023/04/27 10:19:53;;;;;;;1.40;1.30;;;;;;;22.11;34.07;95715.41;5055430;28;20024;-75
2023/04/27 10:22:19;;;;;;;1.70;1.23;;;;;;;21.50;33.73;95709.41;5053466;28;20472;-77
2023/04/27 10:24:48;;;;;;;1.35;1.20;;;;;;;21.59;34.89;95710.84;5057169;28;20524;-74
2023/04/27 10:27:18;;;;;;;1.20;1.10;;;;;;;22.96;31.11;95711.53;5057259;28;20047;-76
2023/04/27 10:29:45;;;;;;;2.53;2.00;;;;;;;22.50;32.90;95718.06;5062052;28;20025;-79
2023/04/27 10:32:13;;;;;;;45.65;40.83;;;;;;;22.27;33.15;95712.22;5056436;28;20028;-79
2023/04/27 10:34:40;;;;;;;62.35;56.45;;;;;;;22.31;31.84;95712.59;5056050;28;20528;-73
2023/04/27 10:37:10;;;;;;;4.97;3.03;;;;;;;21.83;33.27;95706.66;5054591;28;20021;-71
2023/04/27 10:39:38;;;;;;;1.63;1.52;;;;;;;21.83;34.87;95695.13;5050498;28;20049;-71
2023/04/27 10:42:05;;;;;;;28.35;26.08;;;;;;;22.09;33.87;95704.06;5052316;28;20048;-73
2023/04/27 10:44:33;;;;;;;4.97;2.70;;;;;;;22.35;32.90;95707.63;5056259;28;20151;-73
2023/04/27 10:47:13;;;;;;;1.35;1.23;;;;;;;22.21;33.19;95709.56;5056650;28;20055;-73
2023/04/27 10:49:38;;;;;;;1.20;1.08;;;;;;;22.08;33.53;95702.44;5053464;28;20025;-73
2023/04/27 10:52:05;;;;;;;1.17;1.10;;;;;;;21.66;34.09;95702.81;5054024;28;20397;-73
2023/04/27 10:54:30;;;;;;;1.25;1.10;;;;;;;21.64;33.42;95694.13;5055362;28;20033;-73
2023/04/27 10:57:06;;;;;;;1.50;1.30;;;;;;;21.69;33.69;95689.81;5055857;28;20100;-72
2023/04/27 10:59:33;;;;;;;1.42;1.33;;;;;;;21.32;35.61;95697.50;5056436;28;20077;-73
2023/04/27 11:01:58;;;;;;;1.70;1.30;;;;;;;21.88;34.78;95698.81;5055802;28;20083;-73
2023/04/27 11:04:35;;;;;;;3.42;1.30;;;;;;;21.68;37.36;95693.53;5056650;28;20025;-72
2023/04/27 11:07:03;;;;;;;1.20;1.20;;;;;;;22.33;33.28;95699.81;5053928;28;20025;-72
2023/04/27 11:09:28;;;;;;;1.88;1.40;;;;;;;21.94;32.81;95696.31;5056063;28;20021;-72
2023/04/27 11:11:54;;;;;;;1.35;1.20;;;;;;;21.69;35.51;95683.66;5055692;28;20110;-74
2023/04/27 11:14:20;;;;;;;1.10;1.10;;;;;;;21.66;37.15;95690.25;5055514;28;20119;-75
2023/04/27 11:16:48;;;;;;;1.20;1.20;;;;;;;21.68;34.81;95692.72;5046197;28;20570;-74
2023/04/27 11:19:14;;;;;;;1.40;1.30;;;;;;;22.01;33.35;95697.09;5055722;28;20028;-74
2023/04/27 11:21:40;;;;;;;3.03;1.30;;;;;;;22.23;33.25;95704.81;5047820;28;20036;-74
2023/04/27 11:24:07;;;;;;;1.52;1.33;;;;;;;21.97;33.16;95703.91;5054433;28;20029;-74
2023/04/27 11:26:32;;;;;;;2.38;1.50;;;;;;;21.67;33.62;95686.53;5060679;28;20104;-73
2023/04/27 11:29:12;;;;;;;1.92;1.30;;;;;;;21.29;35.06;95695.25;5055016;28;20071;-73
2023/04/27 11:31:39;;;;;;;2.20;1.42;;;;;;;22.07;35.70;95698.09;5047100;28;20032;-72
2023/04/27 11:34:06;;;;;;;1.73;1.30;;;;;;;22.03;32.81;95697.69;5054941;28;20112;-73